createdAt,value
2018-11-02T00:00:06.245Z,100315.58
2018-11-02T00:02:35.423Z,100314.16
2018-11-02T00:05:04.798Z,100310.67
2018-11-02T00:07:34.226Z,100312.21
2018-11-02T00:10:03.650Z,100321.52
2018-11-02T00:12:32.997Z,100307.50
2018-11-02T00:15:02.196Z,100306.55
2018-11-02T00:17:31.544Z,100318.37
2018-11-02T00:20:00.782Z,100326.70
2018-11-02T00:22:30.038Z,100336.11
2018-11-02T00:24:59.320Z,100348.44
2018-11-02T00:27:28.671Z,100361.36
2018-11-02T00:29:57.931Z,100363.97
2018-11-02T00:32:27.334Z,100362.91
2018-11-02T00:34:56.753Z,100365.09
2018-11-02T00:37:26.052Z,100366.14
2018-11-02T00:39:55.217Z,100372.19
2018-11-02T00:42:24.661Z,100384.14
2018-11-02T00:44:53.931Z,100381.11
2018-11-02T00:47:23.351Z,100396.34
2018-11-02T00:49:52.425Z,100391.25
2018-11-02T00:52:21.580Z,100398.27
2018-11-02T00:54:51.021Z,100390.31
2018-11-02T00:57:20.559Z,100396.48
2018-11-02T00:59:49.860Z,100392.48
2018-11-02T01:02:19.178Z,100398.99
2018-11-02T01:04:48.477Z,100398.12
2018-11-02T01:07:17.771Z,100399.97
2018-11-02T01:09:47.042Z,100402.86
2018-11-02T01:12:16.368Z,100404.65
2018-11-02T01:14:45.770Z,100394.86
2018-11-02T01:17:15.085Z,100408.00
2018-11-02T01:19:44.321Z,100402.35
2018-11-02T01:22:13.699Z,100410.53
2018-11-02T01:24:42.918Z,100411.77
2018-11-02T01:27:12.167Z,100420.69
2018-11-02T01:29:41.569Z,100418.38
2018-11-02T01:32:10.978Z,100419.03
2018-11-02T01:34:40.266Z,100428.78
2018-11-02T01:37:09.781Z,100428.08
2018-11-02T01:39:39.028Z,100437.37
2018-11-02T01:42:08.477Z,100436.05
2018-11-02T01:44:37.878Z,100443.19
2018-11-02T01:47:07.499Z,100439.91
2018-11-02T01:49:36.740Z,100444.88
2018-11-02T01:52:06.190Z,100448.98
2018-11-02T01:54:35.493Z,100438.84
2018-11-02T01:57:04.758Z,100439.70
2018-11-02T01:59:33.997Z,100441.37
2018-11-02T02:02:03.441Z,100441.52
2018-11-02T02:04:32.588Z,100436.83
2018-11-02T02:07:01.881Z,100436.79
2018-11-02T02:09:31.189Z,100439.58
2018-11-02T02:12:00.415Z,100446.08
2018-11-02T02:14:29.722Z,100444.88
2018-11-02T02:16:59.330Z,100442.58
2018-11-02T02:19:28.657Z,100443.56
2018-11-02T02:21:58.121Z,100437.37
2018-11-02T02:24:27.246Z,100437.97
2018-11-02T02:26:56.506Z,100433.11
2018-11-02T02:29:25.671Z,100434.80
2018-11-02T02:31:54.901Z,100422.11
2018-11-02T02:34:24.042Z,100422.39
2018-11-02T02:36:53.305Z,100434.98
2018-11-02T02:39:22.599Z,100441.15
2018-11-02T02:41:51.899Z,100445.50
2018-11-02T02:44:21.141Z,100445.13
2018-11-02T02:46:50.417Z,100443.80
2018-11-02T02:49:19.897Z,100440.94
2018-11-02T02:51:49.234Z,100445.02
2018-11-02T02:54:18.499Z,100442.96
2018-11-02T02:56:47.765Z,100440.06
2018-11-02T02:59:17.106Z,100442.11
2018-11-02T03:01:46.460Z,100440.31
2018-11-02T03:04:15.710Z,100450.35
2018-11-02T03:06:44.969Z,100446.22
2018-11-02T03:09:14.186Z,100452.15
2018-11-02T03:11:43.490Z,100453.35
2018-11-02T03:14:13.319Z,100452.62
2018-11-02T03:16:43.029Z,100454.07
2018-11-02T03:19:12.696Z,100459.88
2018-11-02T03:21:42.010Z,100459.64
2018-11-02T03:24:11.456Z,100464.23
2018-11-02T03:26:40.836Z,100465.06
2018-11-02T03:29:11.082Z,100468.93
2018-11-02T03:31:40.453Z,100471.59
2018-11-02T03:34:09.770Z,100472.77
2018-11-02T03:36:39.257Z,100494.51
2018-11-02T03:39:10.550Z,100495.72
2018-11-02T03:41:39.865Z,100502.47
2018-11-02T03:44:09.365Z,100503.56
2018-11-02T03:46:38.938Z,100512.07
2018-11-02T03:49:08.604Z,100523.77
2018-11-02T03:51:37.923Z,100527.50
2018-11-02T03:54:07.520Z,100530.27
2018-11-02T03:56:36.723Z,100529.86
2018-11-02T03:59:06.150Z,100533.34
2018-11-02T04:01:35.365Z,100544.02
2018-11-02T04:04:04.653Z,100543.53
2018-11-02T04:06:33.917Z,100546.67
2018-11-02T04:09:03.255Z,100551.63
2018-11-02T04:11:32.553Z,100559.34
2018-11-02T04:14:01.843Z,100566.34
2018-11-02T04:16:31.119Z,100573.60
2018-11-02T04:19:00.436Z,100576.55
2018-11-02T04:21:29.721Z,100582.52
2018-11-02T04:23:59.056Z,100587.54
2018-11-02T04:26:28.441Z,100588.91
2018-11-02T04:28:57.862Z,100596.05
2018-11-02T04:31:27.105Z,100595.96
2018-11-02T04:33:56.435Z,100598.98
2018-11-02T04:36:25.805Z,100604.78
2018-11-02T04:38:55.098Z,100604.05
2018-11-02T04:41:24.353Z,100609.85
2018-11-02T04:43:53.666Z,100617.50
2018-11-02T04:46:22.910Z,100624.50
2018-11-02T04:48:52.261Z,100629.17
2018-11-02T04:51:21.540Z,100625.55
2018-11-02T04:53:54.612Z,100632.25
2018-11-02T04:56:24.889Z,100634.25
2018-11-02T04:58:54.183Z,100634.30
2018-11-02T05:01:23.655Z,100636.38
2018-11-02T05:03:52.959Z,100646.37
2018-11-02T05:06:22.290Z,100649.05
2018-11-02T05:08:51.789Z,100652.05
2018-11-02T05:11:21.077Z,100660.33
2018-11-02T05:13:50.494Z,100665.20
2018-11-02T05:16:19.689Z,100663.22
2018-11-02T05:18:49.001Z,100664.44
2018-11-02T05:21:18.187Z,100669.19
2018-11-02T05:23:47.475Z,100666.25
2018-11-02T05:26:16.739Z,100677.64
2018-11-02T05:28:46.186Z,100672.82
2018-11-02T05:31:15.500Z,100666.78
2018-11-02T05:33:44.796Z,100671.36
2018-11-02T05:36:14.098Z,100680.91
2018-11-02T05:38:43.422Z,100679.17
2018-11-02T05:41:12.660Z,100677.53
2018-11-02T05:43:41.906Z,100677.84
2018-11-02T05:46:11.065Z,100691.17
2018-11-02T05:48:40.661Z,100694.50
2018-11-02T05:51:09.905Z,100701.03
2018-11-02T05:53:38.981Z,100698.81
2018-11-02T05:56:07.925Z,100699.13
2018-11-02T05:58:36.899Z,100709.35
2018-11-02T06:01:05.948Z,100712.80
2018-11-02T06:03:34.917Z,100709.28
2018-11-02T06:06:03.902Z,100710.48
2018-11-02T06:08:32.880Z,100715.14
2018-11-02T06:11:01.810Z,100717.58
2018-11-02T06:13:30.821Z,100713.59
2018-11-02T06:15:59.779Z,100717.23
2018-11-02T06:18:28.781Z,100725.05
2018-11-02T06:20:57.734Z,100716.59
2018-11-02T06:23:26.642Z,100722.23
2018-11-02T06:25:55.637Z,100718.94
2018-11-02T06:28:24.550Z,100725.95
2018-11-02T06:30:53.543Z,100723.88
2018-11-02T06:33:22.471Z,100723.30
2018-11-02T06:35:51.871Z,100733.03
2018-11-02T06:38:20.830Z,100737.92
2018-11-02T06:40:49.822Z,100749.69
2018-11-02T06:43:18.838Z,100753.50
2018-11-02T06:45:47.842Z,100759.67
2018-11-02T06:48:16.771Z,100768.52
2018-11-02T06:50:46.515Z,100767.22
2018-11-02T06:53:15.456Z,100775.98
2018-11-02T06:55:44.566Z,100779.66
2018-11-02T06:58:13.532Z,100778.51
2018-11-02T07:00:42.506Z,100783.08
2018-11-02T07:03:11.493Z,100786.16
2018-11-02T07:05:40.544Z,100789.18
2018-11-02T07:08:09.695Z,100800.80
2018-11-02T07:10:38.561Z,100805.09
2018-11-02T07:13:07.520Z,100793.69
2018-11-02T07:15:36.527Z,100796.87
2018-11-02T07:18:05.697Z,100798.73
2018-11-02T07:20:34.795Z,100785.02
2018-11-02T07:23:03.752Z,100808.95
2018-11-02T07:25:32.752Z,100813.73
2018-11-02T07:28:01.720Z,100815.28
2018-11-02T07:30:30.727Z,100822.09
2018-11-02T07:33:02.539Z,100830.95
2018-11-02T07:35:32.275Z,100835.90
2018-11-02T07:38:01.296Z,100839.04
2018-11-02T07:40:30.269Z,100838.09
2018-11-02T07:42:59.198Z,100839.16
2018-11-02T07:45:28.202Z,100845.48
2018-11-02T07:47:57.130Z,100852.98
2018-11-02T07:50:26.135Z,100861.09
2018-11-02T07:52:55.161Z,100861.19
2018-11-02T07:55:24.175Z,100856.16
2018-11-02T07:57:53.130Z,100856.03
2018-11-02T08:00:22.126Z,100866.95
2018-11-02T08:02:51.103Z,100861.59
2018-11-02T08:05:20.106Z,100868.19
2018-11-02T08:07:49.109Z,100870.98
2018-11-02T08:10:18.107Z,100874.84
2018-11-02T08:12:47.091Z,100879.52
2018-11-02T08:15:16.018Z,100880.56
2018-11-02T08:17:45.068Z,100888.19
2018-11-02T08:20:14.318Z,100890.06
2018-11-02T08:22:43.780Z,100892.61
2018-11-02T08:25:13.196Z,100901.89
2018-11-02T08:27:42.566Z,100905.59
2018-11-02T08:30:12.144Z,100911.29
2018-11-02T08:32:41.283Z,100905.80
2018-11-02T08:35:12.175Z,100907.44
2018-11-02T08:37:41.630Z,100919.55
2018-11-02T08:40:12.007Z,100920.83
2018-11-02T08:42:41.342Z,100916.92
2018-11-02T08:45:10.915Z,100922.61
2018-11-02T08:47:39.916Z,100921.00
2018-11-02T08:50:10.223Z,100926.64
2018-11-02T08:52:39.178Z,100926.39
2018-11-02T08:55:08.187Z,100927.20
2018-11-02T08:57:37.259Z,100928.04
2018-11-02T09:00:07.332Z,100924.76
2018-11-02T09:02:36.253Z,100933.91
2018-11-02T09:05:05.753Z,100925.36
2018-11-02T09:07:34.677Z,100927.79
2018-11-02T09:10:04.510Z,100931.20
2018-11-02T09:12:33.454Z,100930.74
2018-11-02T09:15:02.437Z,100931.92
2018-11-02T09:17:31.487Z,100932.94
2018-11-02T09:20:00.510Z,100935.64
2018-11-02T09:22:29.564Z,100939.39
2018-11-02T09:24:58.947Z,100938.89
2018-11-02T09:27:27.890Z,100941.43
2018-11-02T09:29:56.856Z,100950.23
2018-11-02T09:32:25.787Z,100952.89
2018-11-02T09:34:54.778Z,100958.59
2018-11-02T09:37:23.756Z,100964.34
2018-11-02T09:39:52.747Z,100964.49
2018-11-02T09:42:22.274Z,100962.89
2018-11-02T09:44:51.312Z,100972.67
2018-11-02T09:47:20.275Z,100968.90
2018-11-02T09:49:49.274Z,100973.81
2018-11-02T09:52:18.278Z,100967.38
2018-11-02T09:54:47.267Z,100969.61
2018-11-02T09:57:16.258Z,100958.05
2018-11-02T09:59:45.249Z,100954.57
2018-11-02T10:02:14.315Z,100956.91
2018-11-02T10:04:44.291Z,100957.75
2018-11-02T10:07:13.243Z,100962.25
2018-11-02T10:09:42.225Z,100961.66
2018-11-02T10:12:11.178Z,100972.41
2018-11-02T10:14:40.165Z,100972.66
2018-11-02T10:17:09.114Z,100976.02
2018-11-02T10:19:38.115Z,100977.36
2018-11-02T10:22:07.098Z,100983.73
2018-11-02T10:24:36.163Z,100979.95
2018-11-02T10:27:05.150Z,100978.08
2018-11-02T10:29:34.118Z,100982.69
2018-11-02T10:32:03.151Z,100977.83
2018-11-02T10:34:32.163Z,100971.92
2018-11-02T10:37:01.166Z,100976.30
2018-11-02T10:39:30.112Z,100969.36
2018-11-02T10:42:07.286Z,100974.13
2018-11-02T10:44:39.259Z,100968.56
2018-11-02T10:47:09.157Z,100974.20
2018-11-02T10:49:38.406Z,100971.23
2018-11-02T10:52:07.515Z,100974.88
2018-11-02T10:54:36.944Z,100972.72
2018-11-02T10:57:06.111Z,100982.53
2018-11-02T10:59:35.079Z,100981.75
2018-11-02T11:02:14.102Z,100986.59
2018-11-02T11:04:43.038Z,100992.22
2018-11-02T11:07:12.033Z,100999.52
2018-11-02T11:09:41.026Z,100992.21
2018-11-02T11:12:10.128Z,100986.03
2018-11-02T11:14:39.034Z,100982.61
2018-11-02T11:17:08.016Z,100984.53
2018-11-02T11:19:37.013Z,100984.67
2018-11-02T11:22:06.294Z,100981.05
2018-11-02T11:24:35.293Z,100991.40
2018-11-02T11:27:04.299Z,100988.87
2018-11-02T11:29:33.307Z,100985.11
2018-11-02T11:32:02.269Z,100980.93
2018-11-02T11:34:31.230Z,100978.31
2018-11-02T11:37:00.230Z,100981.16
2018-11-02T11:39:29.216Z,100988.23
2018-11-02T11:41:58.250Z,100987.21
2018-11-02T11:44:27.216Z,100987.00
2018-11-02T11:46:56.182Z,100989.59
2018-11-02T11:49:25.164Z,100983.77
2018-11-02T11:51:54.178Z,100982.34
2018-11-02T12:00:25.422Z,100971.75
2018-11-02T12:02:54.724Z,100971.91
2018-11-02T12:05:24.595Z,100970.71
2018-11-02T12:07:54.184Z,100966.77
2018-11-02T12:10:24.720Z,100976.42
2018-11-02T12:12:54.573Z,100984.44
2018-11-02T12:15:24.263Z,100983.72
2018-11-02T12:17:53.757Z,100989.13
2018-11-02T12:20:24.426Z,100989.36
2018-11-02T12:22:56.098Z,100989.62
2018-11-02T12:25:25.505Z,100982.16
2018-11-02T12:27:55.830Z,100981.30
2018-11-02T12:30:25.126Z,100983.39
2018-11-02T12:32:54.568Z,100987.55
2018-11-02T12:35:23.965Z,100985.05
2018-11-02T12:37:53.495Z,100993.59
2018-11-02T12:40:23.718Z,100993.20
2018-11-02T12:42:53.889Z,100987.88
2018-11-02T12:45:23.529Z,100989.21
2018-11-02T12:47:52.869Z,100994.38
2018-11-02T12:50:24.476Z,100986.92
2018-11-02T12:52:54.966Z,100985.23
2018-11-02T12:55:24.391Z,100994.37
2018-11-02T12:57:53.717Z,100997.64
2018-11-02T13:00:24.925Z,100995.43
2018-11-02T13:02:54.691Z,100997.05
2018-11-02T13:05:23.962Z,100996.15
2018-11-02T13:07:53.296Z,100990.69
2018-11-02T13:10:23.407Z,100990.45
2018-11-02T13:12:52.720Z,101000.94
2018-11-02T13:15:23.244Z,101002.15
2018-11-02T13:17:52.779Z,101006.23
2018-11-02T13:20:22.145Z,101006.09
2018-11-02T13:22:52.066Z,101023.63
2018-11-02T13:25:22.298Z,101030.11
2018-11-02T13:27:52.237Z,101037.27
2018-11-02T13:30:21.754Z,101040.78
2018-11-02T13:32:50.979Z,101043.45
2018-11-02T13:35:20.846Z,101048.28
2018-11-02T13:37:50.768Z,101054.87
2018-11-02T13:40:20.230Z,101053.91
2018-11-02T13:42:49.783Z,101055.02
2018-11-02T13:45:19.422Z,101051.16
2018-11-02T13:47:48.765Z,101048.97
2018-11-02T13:50:18.285Z,101050.11
2018-11-02T13:52:47.480Z,101047.27
2018-11-02T13:55:16.810Z,101055.44
2018-11-02T13:57:46.139Z,101063.20
2018-11-02T14:00:16.899Z,101056.39
2018-11-02T14:02:46.320Z,101052.91
2018-11-02T14:05:16.672Z,101050.70
2018-11-02T14:07:46.058Z,101049.50
2018-11-02T14:10:15.413Z,101063.55
2018-11-02T14:12:45.119Z,101070.43
2018-11-02T14:15:15.888Z,101074.44
2018-11-02T14:17:45.413Z,101080.92
2018-11-02T14:20:15.166Z,101081.36
2018-11-02T14:22:44.587Z,101080.22
2018-11-02T14:25:15.097Z,101072.48
2018-11-02T14:27:44.518Z,101077.11
2018-11-02T14:30:15.848Z,101071.00
2018-11-02T14:32:45.586Z,101066.50
2018-11-02T14:35:14.834Z,101074.25
2018-11-02T14:37:44.218Z,101079.00
2018-11-02T14:40:13.483Z,101080.77
2018-11-02T14:42:43.143Z,101085.39
2018-11-02T14:45:14.377Z,101079.03
2018-11-02T14:47:44.353Z,101078.75
2018-11-02T14:50:13.872Z,101076.77
2018-11-02T14:52:43.456Z,101073.25
2018-11-02T14:55:13.275Z,101080.06
2018-11-02T14:57:42.559Z,101089.56
2018-11-02T15:00:12.539Z,101095.14
2018-11-02T15:02:42.418Z,101098.55
2018-11-02T15:05:12.934Z,101108.11
2018-11-02T15:07:43.054Z,101122.81
2018-11-02T15:10:12.384Z,101124.73
2018-11-02T15:12:41.368Z,101124.09
2018-11-02T15:15:11.070Z,101116.20
2018-11-02T15:17:40.601Z,101116.54
2018-11-02T15:20:11.672Z,101128.09
2018-11-02T15:22:40.859Z,101133.03
2018-11-02T15:25:10.479Z,101133.39
2018-11-02T15:27:39.903Z,101123.37
2018-11-02T15:30:11.178Z,101125.09
2018-11-02T15:32:40.686Z,101132.81
2018-11-02T15:35:10.825Z,101132.28
2018-11-02T15:37:40.266Z,101144.52
2018-11-02T15:40:10.686Z,101152.56
2018-11-02T15:42:40.205Z,101159.70
2018-11-02T15:45:11.762Z,101166.65
2018-11-02T15:47:41.078Z,101173.82
2018-11-02T15:50:10.961Z,101177.20
2018-11-02T15:52:40.443Z,101174.94
2018-11-02T15:55:10.989Z,101178.81
2018-11-02T15:57:40.330Z,101181.33
2018-11-02T16:00:20.979Z,101185.42
2018-11-02T16:02:51.458Z,101189.07
2018-11-02T16:05:20.904Z,101198.05
2018-11-02T16:07:50.204Z,101196.89
2018-11-02T16:10:19.639Z,101205.97
2018-11-02T16:12:48.930Z,101216.31
2018-11-02T16:15:18.496Z,101219.42
2018-11-02T16:17:47.807Z,101215.55
2018-11-02T16:20:17.301Z,101224.44
2018-11-02T16:22:46.658Z,101231.45
2018-11-02T16:25:16.290Z,101242.91
2018-11-02T16:27:45.519Z,101241.77
2018-11-02T16:30:14.863Z,101252.42
2018-11-02T16:32:44.179Z,101263.03
2018-11-02T16:35:13.617Z,101265.02
2018-11-02T16:37:42.725Z,101259.95
2018-11-02T16:40:13.907Z,101265.43
2018-11-02T16:42:43.891Z,101265.38
2018-11-02T16:45:14.083Z,101275.57
2018-11-02T16:47:43.760Z,101270.53
2018-11-02T16:50:13.973Z,101273.30
2018-11-02T16:52:43.685Z,101274.84
2018-11-02T16:55:12.977Z,101281.63
2018-11-02T16:57:42.535Z,101281.05
2018-11-02T17:00:15.948Z,101277.17
2018-11-02T17:02:46.299Z,101281.71
2018-11-02T17:05:16.021Z,101278.55
2018-11-02T17:07:45.302Z,101292.08
2018-11-02T17:10:15.482Z,101292.00
2018-11-02T17:12:45.259Z,101297.34
2018-11-02T17:15:14.870Z,101304.80
2018-11-02T17:17:44.099Z,101309.91
2018-11-02T17:20:14.857Z,101317.80
2018-11-02T17:22:44.035Z,101319.61
2018-11-02T17:25:13.592Z,101333.91
2018-11-02T17:27:42.857Z,101342.88
2018-11-02T17:30:16.008Z,101340.23
2018-11-02T17:32:45.169Z,101354.23
2018-11-02T17:35:14.461Z,101354.14
2018-11-02T17:37:43.729Z,101361.73
2018-11-02T17:40:14.366Z,101374.62
2018-11-02T17:42:44.236Z,101376.75
2018-11-02T17:45:13.546Z,101374.08
2018-11-02T17:47:43.151Z,101377.85
2018-11-02T17:50:13.729Z,101378.81
2018-11-02T17:52:44.051Z,101384.02
2018-11-02T17:55:13.377Z,101387.19
2018-11-02T17:57:42.799Z,101382.05
2018-11-02T18:00:13.844Z,101388.38
2018-11-02T18:02:44.004Z,101384.88
2018-11-02T18:05:13.874Z,101401.45
2018-11-02T18:07:43.665Z,101396.23
2018-11-02T18:10:14.995Z,101386.51
2018-11-02T18:12:44.648Z,101389.13
2018-11-02T18:15:14.011Z,101391.80
2018-11-02T18:17:43.351Z,101395.75
2018-11-02T18:20:14.396Z,101405.17
2018-11-02T18:22:43.656Z,101405.12
2018-11-02T18:25:13.650Z,101412.20
2018-11-02T18:27:43.691Z,101415.61
2018-11-02T18:30:13.391Z,101412.46
2018-11-02T18:32:42.591Z,101415.56
2018-11-02T18:35:11.900Z,101416.43
2018-11-02T18:37:41.648Z,101415.94
2018-11-02T18:40:12.521Z,101422.67
2018-11-02T18:42:41.854Z,101422.48
2018-11-02T18:45:13.379Z,101426.91
2018-11-02T18:47:46.744Z,101433.63
2018-11-02T18:50:17.200Z,101437.41
2018-11-02T18:52:47.389Z,101433.73
2018-11-02T18:55:18.272Z,101440.06
2018-11-02T18:57:47.550Z,101434.33
2018-11-02T19:00:17.343Z,101426.22
2018-11-02T19:02:46.589Z,101434.72
2018-11-02T19:05:17.176Z,101430.96
2018-11-02T19:07:46.567Z,101441.94
2018-11-02T19:10:16.113Z,101435.17
2018-11-02T19:12:45.690Z,101446.09
2018-11-02T19:15:16.808Z,101443.31
2018-11-02T19:17:46.170Z,101449.02
2018-11-02T19:20:15.767Z,101442.89
2018-11-02T19:22:45.505Z,101450.94
2018-11-02T19:25:15.667Z,101440.38
2018-11-02T19:27:46.122Z,101448.00
2018-11-02T19:30:15.915Z,101451.13
2018-11-02T19:32:45.187Z,101448.56
2018-11-02T19:35:15.065Z,101451.90
2018-11-02T19:37:44.374Z,101460.63
2018-11-02T19:40:14.904Z,101470.27
2018-11-02T19:42:44.660Z,101475.39
2018-11-02T19:45:14.156Z,101473.02
2018-11-02T19:47:48.483Z,101473.52
2018-11-02T19:50:19.455Z,101467.14
2018-11-02T19:52:48.706Z,101474.88
2018-11-02T19:55:17.862Z,101480.05
2018-11-02T19:57:47.007Z,101470.80
2018-11-02T20:00:16.924Z,101473.83
2018-11-02T20:02:46.281Z,101481.19
2018-11-02T20:05:16.892Z,101480.52
2018-11-02T20:07:46.155Z,101488.97
2018-11-02T20:10:16.221Z,101490.75
2018-11-02T20:12:45.792Z,101496.61
2018-11-02T20:15:15.698Z,101496.61
2018-11-02T20:17:45.811Z,101497.33
2018-11-02T20:20:16.278Z,101504.87
2018-11-02T20:22:45.753Z,101514.52
2018-11-02T20:25:16.166Z,101516.25
2018-11-02T20:27:45.702Z,101520.99
2018-11-02T20:30:16.742Z,101522.05
2018-11-02T20:32:46.181Z,101527.77
2018-11-02T20:35:15.599Z,101526.62
2018-11-02T20:37:45.133Z,101539.63
2018-11-02T20:40:16.835Z,101543.20
2018-11-02T20:42:46.476Z,101549.02
2018-11-02T20:45:16.417Z,101556.14
2018-11-02T20:47:51.142Z,101552.31
2018-11-02T20:50:20.710Z,101559.67
2018-11-02T20:52:50.258Z,101559.66
2018-11-02T20:55:19.750Z,101562.84
2018-11-02T20:57:49.269Z,101560.13
2018-11-02T21:00:20.971Z,101572.86
2018-11-02T21:02:50.332Z,101571.80
2018-11-02T21:05:20.395Z,101560.39
2018-11-02T21:07:50.052Z,101559.61
2018-11-02T21:10:20.301Z,101562.56
2018-11-02T21:12:49.941Z,101569.53
2018-11-02T21:15:20.830Z,101573.78
2018-11-02T21:17:50.558Z,101567.16
2018-11-02T21:20:22.971Z,101571.58
2018-11-02T21:22:52.198Z,101566.80
2018-11-02T21:25:21.813Z,101575.64
2018-11-02T21:27:51.222Z,101575.47
2018-11-02T21:30:22.872Z,101565.64
2018-11-02T21:32:52.965Z,101576.84
2018-11-02T21:35:23.898Z,101578.09
2018-11-02T21:37:53.310Z,101585.17
2018-11-02T21:40:24.722Z,101580.27
2018-11-02T21:42:53.981Z,101583.09
2018-11-02T21:45:24.001Z,101591.73
2018-11-02T21:47:53.307Z,101581.45
2018-11-02T21:50:22.606Z,101585.12
2018-11-02T21:52:51.925Z,101583.47
2018-11-02T21:55:21.126Z,101585.39
2018-11-02T21:57:50.510Z,101584.16
2018-11-02T22:00:20.808Z,101582.75
2018-11-02T22:02:50.146Z,101578.05
2018-11-02T22:05:19.597Z,101576.91
2018-11-02T22:07:49.690Z,101571.39
2018-11-02T22:10:19.055Z,101568.05
2018-11-02T22:12:48.408Z,101576.19
2018-11-02T22:15:17.732Z,101578.05
2018-11-02T22:17:47.078Z,101574.31
2018-11-02T22:20:16.674Z,101567.02
2018-11-02T22:22:45.948Z,101562.75
2018-11-02T22:25:18.456Z,101573.50
2018-11-02T22:27:48.540Z,101568.70
2018-11-02T22:30:18.909Z,101572.17
2018-11-02T22:32:48.505Z,101576.88
2018-11-02T22:35:17.693Z,101576.97
2018-11-02T22:37:47.103Z,101565.35
2018-11-02T22:40:16.814Z,101571.69
2018-11-02T22:42:45.809Z,101570.46
2018-11-02T22:45:15.559Z,101574.91
2018-11-02T22:47:49.748Z,101574.00
2018-11-02T22:50:18.702Z,101574.53
2018-11-02T22:52:47.701Z,101560.81
2018-11-02T22:55:16.626Z,101568.10
2018-11-02T22:57:45.605Z,101557.08
2018-11-02T23:00:17.561Z,101562.66
2018-11-02T23:02:47.342Z,101566.19
2018-11-02T23:05:16.282Z,101568.05
2018-11-02T23:07:45.505Z,101579.05
2018-11-02T23:10:14.458Z,101578.12
2018-11-02T23:12:43.533Z,101581.38
2018-11-02T23:15:13.085Z,101575.20
2018-11-02T23:17:42.066Z,101583.63
2018-11-02T23:20:13.416Z,101587.56
2018-11-02T23:22:42.430Z,101591.94
2018-11-02T23:25:12.165Z,101597.47
2018-11-02T23:27:42.619Z,101599.25
2018-11-02T23:30:11.867Z,101596.31
2018-11-02T23:32:40.857Z,101584.89
2018-11-02T23:35:10.126Z,101582.41
2018-11-02T23:37:39.121Z,101580.78
2018-11-02T23:40:08.976Z,101576.55
2018-11-02T23:42:38.050Z,101577.77
2018-11-02T23:45:07.337Z,101569.26
2018-11-02T23:47:36.351Z,101556.91
2018-11-02T23:50:06.455Z,101562.38
2018-11-02T23:52:35.492Z,101555.55
2018-11-02T23:55:04.455Z,101558.66
2018-11-02T23:57:33.429Z,101566.66
